Hauptseite
METAR-TAF:

METAR-TAF

Flughäfen :

Fliegerhorst Wunstorf

Wunstorf, Deutschland

Breite: 52-27N, Länge: 009-26E, Höhe: 57 m

Beobachtung

Neuester Wetterbericht von vor 43 Minuten, um 15:20 UTC
Wind 3 kt aus Nord
Temperatur 29°C
Luftfeuchtigkeit 29%
Luftdruck 1024 hPa
Sichtweite 10 km oder mehr
Aufgelockert bewölkt in der Höhe von 35000 ft

METAR: ETNW 231520Z 35003KT 9999 SCT350 29/09 Q1024 BLU+

Zeit: 18:03 (16:03 UTC)

Prognose

Neuester Wetterbericht von vor 5 Stunden und 57 Minuten, um 10:06 UTC
Gültige Prognose vom 23 um 11 UTC bis 24 um 11 UTC
Wind 3 kt aus unterschiedlichen Richtungen
Sichtweite 10 km oder mehr
Leicht bewölkt in der Höhe von 30000 ft
Übergehend zu
vom 24 um 04 UTC bis 24 um 06 UTC
Wind 5 kt aus Ost
Sichtweite 10 km oder mehr
Aufgelockert bewölkt in der Höhe von 30000 ft

TAF: ETNW 231006Z 2311/2411 VRB03KT 9999 NSW FEW300 BECMG 2404/2406 08005KT 9999 NSW SCT300 BY ETGL

Wetterbeobachtungen und Prognosen von mehr als 4000 Flughäfen (METAR und TAF Bericht).

Die verfügbaren Stationen werden durch gelbe und rote Markierungen auf der Karte dargestellt.

Führen Sie die Maus auf sie, um den Namen der Station zu sehen.

Darauf klicken, um die Beobachtung von Wetterbeobachtungen und Prognosen zu sehen.

Um die Karte zu ändern : klicken Sie auf den grünen Tasten mit einem schwarzen Kreuz Zum Vergrößern, auf den grünen Button mit einem Gedankenstrich zu verkleinern, oder auf die grünen Pfeile für benachbarte Karten.


METAR-TAF: